sensor_id;sensor_type;location;lat;lon;timestamp;P1;durP1;ratioP1;P2;durP2;ratioP2
34725;SDS011;20951;50.818;4.344;2022-10-31T00:02:05;15.88;;;9.93;;
34725;SDS011;20951;50.818;4.344;2022-10-31T00:04:31;17.63;;;10.07;;
34725;SDS011;20951;50.818;4.344;2022-10-31T00:06:57;20.17;;;10.30;;
34725;SDS011;20951;50.818;4.344;2022-10-31T00:09:22;22.85;;;10.43;;
34725;SDS011;20951;50.818;4.344;2022-10-31T00:11:48;18.63;;;10.25;;
34725;SDS011;20951;50.818;4.344;2022-10-31T00:14:14;18.35;;;10.05;;
34725;SDS011;20951;50.818;4.344;2022-10-31T00:16:42;20.55;;;9.80;;
34725;SDS011;20951;50.818;4.344;2022-10-31T00:19:08;17.80;;;10.18;;
34725;SDS011;20951;50.818;4.344;2022-10-31T00:21:34;18.90;;;9.63;;
34725;SDS011;20951;50.818;4.344;2022-10-31T00:24:00;17.00;;;9.45;;
34725;SDS011;20951;50.818;4.344;2022-10-31T00:26:30;17.98;;;9.45;;
34725;SDS011;20951;50.818;4.344;2022-10-31T00:28:57;17.00;;;9.32;;
34725;SDS011;20951;50.818;4.344;2022-10-31T00:31:23;15.73;;;9.40;;
34725;SDS011;20951;50.818;4.344;2022-10-31T00:33:49;17.33;;;9.45;;
34725;SDS011;20951;50.818;4.344;2022-10-31T00:36:16;15.95;;;8.77;;
34725;SDS011;20951;50.818;4.344;2022-10-31T00:38:44;16.75;;;9.48;;
34725;SDS011;20951;50.818;4.344;2022-10-31T00:41:10;15.95;;;9.30;;
34725;SDS011;20951;50.818;4.344;2022-10-31T00:43:37;16.05;;;9.27;;
34725;SDS011;20951;50.818;4.344;2022-10-31T00:46:03;17.15;;;8.98;;
34725;SDS011;20951;50.818;4.344;2022-10-31T00:48:29;14.90;;;9.32;;
34725;SDS011;20951;50.818;4.344;2022-10-31T00:50:55;15.27;;;8.18;;
34725;SDS011;20951;50.818;4.344;2022-10-31T00:53:24;16.38;;;8.57;;
34725;SDS011;20951;50.818;4.344;2022-10-31T00:55:50;17.48;;;8.70;;
34725;SDS011;20951;50.818;4.344;2022-10-31T00:58:16;14.60;;;8.38;;
34725;SDS011;20951;50.818;4.344;2022-10-31T01:00:42;16.55;;;7.85;;
34725;SDS011;20951;50.818;4.344;2022-10-31T01:03:08;17.17;;;8.88;;
34725;SDS011;20951;50.818;4.344;2022-10-31T01:05:34;16.95;;;8.02;;
34725;SDS011;20951;50.818;4.344;2022-10-31T01:07:59;15.00;;;7.82;;
34725;SDS011;20951;50.818;4.344;2022-10-31T01:10:25;16.92;;;8.05;;
34725;SDS011;20951;50.818;4.344;2022-10-31T01:12:51;16.67;;;8.35;;
34725;SDS011;20951;50.818;4.344;2022-10-31T01:15:18;15.38;;;8.75;;
34725;SDS011;20951;50.818;4.344;2022-10-31T01:17:47;13.73;;;8.30;;
34725;SDS011;20951;50.818;4.344;2022-10-31T01:20:13;15.20;;;8.23;;
34725;SDS011;20951;50.818;4.344;2022-10-31T01:22:40;16.30;;;8.65;;
34725;SDS011;20951;50.818;4.344;2022-10-31T01:25:06;14.07;;;8.70;;
34725;SDS011;20951;50.818;4.344;2022-10-31T01:27:33;15.93;;;9.00;;
34725;SDS011;20951;50.818;4.344;2022-10-31T01:29:59;16.80;;;8.98;;
34725;SDS011;20951;50.818;4.344;2022-10-31T01:32:24;14.48;;;8.30;;
34725;SDS011;20951;50.818;4.344;2022-10-31T01:34:53;15.23;;;8.40;;
34725;SDS011;20951;50.818;4.344;2022-10-31T01:37:19;15.13;;;8.35;;
34725;SDS011;20951;50.818;4.344;2022-10-31T01:39:47;15.43;;;8.48;;
34725;SDS011;20951;50.818;4.344;2022-10-31T01:42:20;18.42;;;8.80;;
34725;SDS011;20951;50.818;4.344;2022-10-31T01:44:51;15.35;;;9.18;;
34725;SDS011;20951;50.818;4.344;2022-10-31T01:47:30;19.48;;;8.93;;
34725;SDS011;20951;50.818;4.344;2022-10-31T01:50:10;17.90;;;8.65;;
34725;SDS011;20951;50.818;4.344;2022-10-31T01:52:41;14.52;;;9.23;;
34725;SDS011;20951;50.818;4.344;2022-10-31T01:57:46;21.70;;;9.80;;
34725;SDS011;20951;50.818;4.344;2022-10-31T02:00:15;15.45;;;8.93;;
34725;SDS011;20951;50.818;4.344;2022-10-31T02:02:42;16.27;;;9.05;;
34725;SDS011;20951;50.818;4.344;2022-10-31T02:05:10;15.70;;;9.32;;
34725;SDS011;20951;50.818;4.344;2022-10-31T02:10:22;14.65;;;9.40;;
34725;SDS011;20951;50.818;4.344;2022-10-31T02:12:52;20.40;;;10.90;;
34725;SDS011;20951;50.818;4.344;2022-10-31T02:15:20;17.67;;;10.55;;
34725;SDS011;20951;50.818;4.344;2022-10-31T02:17:46;20.10;;;11.20;;
34725;SDS011;20951;50.818;4.344;2022-10-31T02:45:00;15.95;;;10.88;;
34725;SDS011;20951;50.818;4.344;2022-10-31T02:47:45;20.45;;;11.20;;
34725;SDS011;20951;50.818;4.344;2022-10-31T02:50:19;19.17;;;10.70;;
34725;SDS011;20951;50.818;4.344;2022-10-31T02:52:51;18.08;;;10.82;;
34725;SDS011;20951;50.818;4.344;2022-10-31T02:57:54;19.17;;;10.80;;
34725;SDS011;20951;50.818;4.344;2022-10-31T03:00:28;20.30;;;11.10;;
34725;SDS011;20951;50.818;4.344;2022-10-31T03:08:39;20.08;;;11.07;;
34725;SDS011;20951;50.818;4.344;2022-10-31T03:11:14;19.20;;;11.13;;
34725;SDS011;20951;50.818;4.344;2022-10-31T03:21:30;18.77;;;10.93;;
34725;SDS011;20951;50.818;4.344;2022-10-31T03:24:01;17.13;;;10.23;;
34725;SDS011;20951;50.818;4.344;2022-10-31T03:26:32;16.60;;;10.45;;
34725;SDS011;20951;50.818;4.344;2022-10-31T03:29:03;19.60;;;10.80;;
34725;SDS011;20951;50.818;4.344;2022-10-31T03:31:32;17.25;;;10.90;;
34725;SDS011;20951;50.818;4.344;2022-10-31T03:34:09;19.02;;;10.02;;
34725;SDS011;20951;50.818;4.344;2022-10-31T03:36:38;21.13;;;10.77;;
34725;SDS011;20951;50.818;4.344;2022-10-31T03:39:05;18.70;;;10.43;;
34725;SDS011;20951;50.818;4.344;2022-10-31T03:41:39;18.90;;;10.57;;
34725;SDS011;20951;50.818;4.344;2022-10-31T03:44:09;18.73;;;10.73;;
34725;SDS011;20951;50.818;4.344;2022-10-31T03:46:39;17.90;;;10.18;;
34725;SDS011;20951;50.818;4.344;2022-10-31T03:49:06;20.75;;;10.65;;
34725;SDS011;20951;50.818;4.344;2022-10-31T03:54:30;20.05;;;10.57;;
34725;SDS011;20951;50.818;4.344;2022-10-31T03:57:14;17.45;;;10.50;;
34725;SDS011;20951;50.818;4.344;2022-10-31T04:00:00;19.35;;;10.38;;
34725;SDS011;20951;50.818;4.344;2022-10-31T04:02:32;19.33;;;10.48;;
34725;SDS011;20951;50.818;4.344;2022-10-31T04:05:01;22.05;;;10.82;;
34725;SDS011;20951;50.818;4.344;2022-10-31T04:07:28;19.17;;;10.80;;
34725;SDS011;20951;50.818;4.344;2022-10-31T04:09:58;17.23;;;10.40;;
34725;SDS011;20951;50.818;4.344;2022-10-31T04:12:27;22.92;;;11.85;;
34725;SDS011;20951;50.818;4.344;2022-10-31T04:14:56;17.75;;;10.52;;
34725;SDS011;20951;50.818;4.344;2022-10-31T04:17:23;20.48;;;11.05;;
34725;SDS011;20951;50.818;4.344;2022-10-31T04:19:51;23.52;;;10.85;;
34725;SDS011;20951;50.818;4.344;2022-10-31T04:22:20;17.60;;;11.00;;
34725;SDS011;20951;50.818;4.344;2022-10-31T04:24:46;16.10;;;10.30;;
34725;SDS011;20951;50.818;4.344;2022-10-31T04:27:14;15.93;;;10.18;;
34725;SDS011;20951;50.818;4.344;2022-10-31T04:29:40;20.63;;;11.77;;
34725;SDS011;20951;50.818;4.344;2022-10-31T04:32:06;15.50;;;10.57;;
34725;SDS011;20951;50.818;4.344;2022-10-31T04:34:32;15.07;;;10.88;;
34725;SDS011;20951;50.818;4.344;2022-10-31T04:36:57;15.45;;;11.02;;
34725;SDS011;20951;50.818;4.344;2022-10-31T04:39:25;17.60;;;11.57;;
34725;SDS011;20951;50.818;4.344;2022-10-31T04:41:51;15.88;;;10.95;;
34725;SDS011;20951;50.818;4.344;2022-10-31T04:44:20;17.83;;;11.43;;
34725;SDS011;20951;50.818;4.344;2022-10-31T04:46:46;16.15;;;10.82;;
34725;SDS011;20951;50.818;4.344;2022-10-31T04:49:12;19.80;;;11.70;;
34725;SDS011;20951;50.818;4.344;2022-10-31T04:51:38;17.75;;;11.85;;
34725;SDS011;20951;50.818;4.344;2022-10-31T04:54:06;18.35;;;11.70;;
34725;SDS011;20951;50.818;4.344;2022-10-31T04:56:32;20.40;;;12.07;;
34725;SDS011;20951;50.818;4.344;2022-10-31T04:58:58;18.67;;;12.32;;
34725;SDS011;20951;50.818;4.344;2022-10-31T05:01:24;18.25;;;12.18;;
34725;SDS011;20951;50.818;4.344;2022-10-31T05:03:52;22.77;;;13.05;;
34725;SDS011;20951;50.818;4.344;2022-10-31T05:06:18;21.35;;;12.68;;
34725;SDS011;20951;50.818;4.344;2022-10-31T05:08:44;20.63;;;12.52;;
34725;SDS011;20951;50.818;4.344;2022-10-31T05:11:10;22.73;;;12.90;;
34725;SDS011;20951;50.818;4.344;2022-10-31T05:13:36;20.30;;;12.77;;
34725;SDS011;20951;50.818;4.344;2022-10-31T05:16:02;23.83;;;13.55;;
34725;SDS011;20951;50.818;4.344;2022-10-31T05:18:28;21.45;;;13.23;;
34725;SDS011;20951;50.818;4.344;2022-10-31T05:20:55;20.92;;;14.45;;
34725;SDS011;20951;50.818;4.344;2022-10-31T05:23:21;25.15;;;15.82;;
34725;SDS011;20951;50.818;4.344;2022-10-31T05:25:47;28.42;;;18.73;;
34725;SDS011;20951;50.818;4.344;2022-10-31T05:28:13;25.20;;;15.77;;
34725;SDS011;20951;50.818;4.344;2022-10-31T05:30:38;22.65;;;15.20;;
34725;SDS011;20951;50.818;4.344;2022-10-31T05:33:04;27.02;;;15.30;;
34725;SDS011;20951;50.818;4.344;2022-10-31T05:35:31;23.67;;;14.75;;
34725;SDS011;20951;50.818;4.344;2022-10-31T05:38:01;24.60;;;14.93;;
34725;SDS011;20951;50.818;4.344;2022-10-31T05:40:27;26.48;;;14.90;;
34725;SDS011;20951;50.818;4.344;2022-10-31T05:42:54;24.95;;;14.52;;
34725;SDS011;20951;50.818;4.344;2022-10-31T05:45:21;22.95;;;14.55;;
34725;SDS011;20951;50.818;4.344;2022-10-31T05:50:18;24.50;;;14.68;;
34725;SDS011;20951;50.818;4.344;2022-10-31T05:52:44;25.40;;;14.70;;
34725;SDS011;20951;50.818;4.344;2022-10-31T05:55:10;25.13;;;14.88;;
34725;SDS011;20951;50.818;4.344;2022-10-31T05:57:36;29.90;;;16.63;;
34725;SDS011;20951;50.818;4.344;2022-10-31T06:00:02;25.17;;;14.73;;
34725;SDS011;20951;50.818;4.344;2022-10-31T06:02:29;27.02;;;15.48;;
34725;SDS011;20951;50.818;4.344;2022-10-31T06:04:59;24.23;;;15.13;;
34725;SDS011;20951;50.818;4.344;2022-10-31T06:07:26;27.70;;;15.93;;
34725;SDS011;20951;50.818;4.344;2022-10-31T06:09:52;25.42;;;14.40;;
34725;SDS011;20951;50.818;4.344;2022-10-31T06:12:17;26.05;;;14.73;;
34725;SDS011;20951;50.818;4.344;2022-10-31T06:14:43;28.10;;;15.70;;
34725;SDS011;20951;50.818;4.344;2022-10-31T06:17:09;26.65;;;15.00;;
34725;SDS011;20951;50.818;4.344;2022-10-31T06:19:35;23.10;;;14.98;;
34725;SDS011;20951;50.818;4.344;2022-10-31T06:22:01;22.65;;;15.10;;
34725;SDS011;20951;50.818;4.344;2022-10-31T06:24:26;27.38;;;14.20;;
34725;SDS011;20951;50.818;4.344;2022-10-31T06:26:52;24.45;;;14.82;;
34725;SDS011;20951;50.818;4.344;2022-10-31T06:29:18;24.95;;;14.70;;
34725;SDS011;20951;50.818;4.344;2022-10-31T06:31:44;23.27;;;16.42;;
34725;SDS011;20951;50.818;4.344;2022-10-31T06:34:10;26.45;;;15.80;;
34725;SDS011;20951;50.818;4.344;2022-10-31T06:36:35;23.90;;;15.02;;
34725;SDS011;20951;50.818;4.344;2022-10-31T06:39:03;23.10;;;14.63;;
34725;SDS011;20951;50.818;4.344;2022-10-31T06:41:29;23.23;;;14.43;;
34725;SDS011;20951;50.818;4.344;2022-10-31T06:43:56;24.08;;;14.02;;
34725;SDS011;20951;50.818;4.344;2022-10-31T06:46:22;26.33;;;13.05;;
34725;SDS011;20951;50.818;4.344;2022-10-31T06:48:48;21.98;;;13.27;;
34725;SDS011;20951;50.818;4.344;2022-10-31T06:51:16;27.35;;;13.02;;
34725;SDS011;20951;50.818;4.344;2022-10-31T06:53:42;21.60;;;12.68;;
34725;SDS011;20951;50.818;4.344;2022-10-31T06:56:08;23.13;;;12.65;;
34725;SDS011;20951;50.818;4.344;2022-10-31T06:58:33;23.80;;;13.15;;
34725;SDS011;20951;50.818;4.344;2022-10-31T07:00:59;20.77;;;12.43;;
34725;SDS011;20951;50.818;4.344;2022-10-31T07:03:28;24.65;;;12.95;;
34725;SDS011;20951;50.818;4.344;2022-10-31T07:05:56;24.38;;;13.00;;
34725;SDS011;20951;50.818;4.344;2022-10-31T07:08:23;18.20;;;12.50;;
34725;SDS011;20951;50.818;4.344;2022-10-31T07:10:53;24.73;;;12.85;;
34725;SDS011;20951;50.818;4.344;2022-10-31T07:13:20;21.73;;;12.95;;
34725;SDS011;20951;50.818;4.344;2022-10-31T07:15:50;18.17;;;13.05;;
34725;SDS011;20951;50.818;4.344;2022-10-31T07:18:19;19.17;;;13.38;;
34725;SDS011;20951;50.818;4.344;2022-10-31T07:20:45;22.08;;;13.23;;
34725;SDS011;20951;50.818;4.344;2022-10-31T07:23:11;22.33;;;13.40;;
34725;SDS011;20951;50.818;4.344;2022-10-31T07:25:40;21.20;;;12.88;;
34725;SDS011;20951;50.818;4.344;2022-10-31T07:28:08;17.77;;;12.70;;
34725;SDS011;20951;50.818;4.344;2022-10-31T07:30:34;21.17;;;13.60;;
34725;SDS011;20951;50.818;4.344;2022-10-31T07:32:59;23.17;;;13.95;;
34725;SDS011;20951;50.818;4.344;2022-10-31T07:35:27;26.42;;;15.48;;
34725;SDS011;20951;50.818;4.344;2022-10-31T07:37:54;24.67;;;14.90;;
34725;SDS011;20951;50.818;4.344;2022-10-31T07:40:23;26.60;;;15.02;;
34725;SDS011;20951;50.818;4.344;2022-10-31T07:42:52;24.30;;;15.13;;
34725;SDS011;20951;50.818;4.344;2022-10-31T07:45:22;24.02;;;15.27;;
34725;SDS011;20951;50.818;4.344;2022-10-31T07:47:49;20.90;;;13.85;;
34725;SDS011;20951;50.818;4.344;2022-10-31T07:50:17;21.60;;;13.05;;
34725;SDS011;20951;50.818;4.344;2022-10-31T07:52:48;17.05;;;11.80;;
34725;SDS011;20951;50.818;4.344;2022-10-31T07:55:33;20.20;;;12.30;;
34725;SDS011;20951;50.818;4.344;2022-10-31T07:58:00;16.65;;;11.65;;
34725;SDS011;20951;50.818;4.344;2022-10-31T08:00:31;18.25;;;10.05;;
34725;SDS011;20951;50.818;4.344;2022-10-31T08:03:05;14.30;;;9.45;;
34725;SDS011;20951;50.818;4.344;2022-10-31T08:05:32;16.90;;;10.07;;
34725;SDS011;20951;50.818;4.344;2022-10-31T08:07:59;14.80;;;9.52;;
34725;SDS011;20951;50.818;4.344;2022-10-31T08:10:25;14.93;;;9.50;;
34725;SDS011;20951;50.818;4.344;2022-10-31T08:12:58;18.27;;;9.75;;
34725;SDS011;20951;50.818;4.344;2022-10-31T08:15:25;15.13;;;9.43;;
34725;SDS011;20951;50.818;4.344;2022-10-31T08:17:51;18.73;;;13.73;;
34725;SDS011;20951;50.818;4.344;2022-10-31T08:20:17;12.48;;;8.23;;
34725;SDS011;20951;50.818;4.344;2022-10-31T08:22:51;14.48;;;8.90;;
34725;SDS011;20951;50.818;4.344;2022-10-31T08:25:21;14.98;;;9.32;;
34725;SDS011;20951;50.818;4.344;2022-10-31T08:27:52;12.68;;;9.18;;
34725;SDS011;20951;50.818;4.344;2022-10-31T08:30:19;17.20;;;9.77;;
34725;SDS011;20951;50.818;4.344;2022-10-31T08:32:46;16.60;;;8.32;;
34725;SDS011;20951;50.818;4.344;2022-10-31T08:35:12;15.43;;;10.02;;
34725;SDS011;20951;50.818;4.344;2022-10-31T08:37:39;16.13;;;9.57;;
34725;SDS011;20951;50.818;4.344;2022-10-31T08:40:05;13.95;;;9.43;;
34725;SDS011;20951;50.818;4.344;2022-10-31T08:42:31;19.75;;;11.15;;
34725;SDS011;20951;50.818;4.344;2022-10-31T08:44:57;17.73;;;10.30;;
34725;SDS011;20951;50.818;4.344;2022-10-31T08:47:23;16.00;;;9.45;;
34725;SDS011;20951;50.818;4.344;2022-10-31T08:49:49;15.70;;;9.63;;
34725;SDS011;20951;50.818;4.344;2022-10-31T08:52:15;15.55;;;9.32;;
34725;SDS011;20951;50.818;4.344;2022-10-31T08:54:41;13.45;;;8.95;;
34725;SDS011;20951;50.818;4.344;2022-10-31T08:57:06;18.23;;;9.40;;
34725;SDS011;20951;50.818;4.344;2022-10-31T08:59:32;13.18;;;8.52;;
34725;SDS011;20951;50.818;4.344;2022-10-31T09:01:58;14.20;;;8.82;;
34725;SDS011;20951;50.818;4.344;2022-10-31T09:04:24;15.00;;;8.63;;
34725;SDS011;20951;50.818;4.344;2022-10-31T09:06:52;13.02;;;8.43;;
34725;SDS011;20951;50.818;4.344;2022-10-31T09:09:17;16.10;;;8.25;;
34725;SDS011;20951;50.818;4.344;2022-10-31T09:11:43;16.67;;;8.75;;
34725;SDS011;20951;50.818;4.344;2022-10-31T09:14:09;16.45;;;8.70;;
34725;SDS011;20951;50.818;4.344;2022-10-31T09:16:36;15.27;;;8.77;;
34725;SDS011;20951;50.818;4.344;2022-10-31T09:19:02;16.40;;;8.88;;
34725;SDS011;20951;50.818;4.344;2022-10-31T09:21:28;14.32;;;8.45;;
34725;SDS011;20951;50.818;4.344;2022-10-31T09:23:53;18.63;;;9.02;;
34725;SDS011;20951;50.818;4.344;2022-10-31T09:26:19;16.42;;;8.77;;
34725;SDS011;20951;50.818;4.344;2022-10-31T09:28:48;11.57;;;7.50;;
34725;SDS011;20951;50.818;4.344;2022-10-31T09:31:14;13.57;;;8.00;;
34725;SDS011;20951;50.818;4.344;2022-10-31T09:33:42;11.27;;;8.13;;
34725;SDS011;20951;50.818;4.344;2022-10-31T09:36:08;14.18;;;8.20;;
34725;SDS011;20951;50.818;4.344;2022-10-31T09:38:34;13.73;;;8.73;;
34725;SDS011;20951;50.818;4.344;2022-10-31T09:51:29;27.05;;;19.17;;
34725;SDS011;20951;50.818;4.344;2022-10-31T09:56:31;17.77;;;10.63;;
34725;SDS011;20951;50.818;4.344;2022-10-31T09:59:11;15.55;;;9.43;;
34725;SDS011;20951;50.818;4.344;2022-10-31T10:02:00;14.73;;;8.88;;
34725;SDS011;20951;50.818;4.344;2022-10-31T10:04:59;16.30;;;9.93;;
34725;SDS011;20951;50.818;4.344;2022-10-31T10:09:58;14.65;;;8.90;;
34725;SDS011;20951;50.818;4.344;2022-10-31T10:18:29;14.30;;;8.90;;
34725;SDS011;20951;50.818;4.344;2022-10-31T10:24:23;17.85;;;9.70;;
34725;SDS011;20951;50.818;4.344;2022-10-31T10:27:19;16.20;;;9.77;;
34725;SDS011;20951;50.818;4.344;2022-10-31T10:32:56;15.43;;;10.10;;
34725;SDS011;20951;50.818;4.344;2022-10-31T10:35:29;18.40;;;9.60;;
34725;SDS011;20951;50.818;4.344;2022-10-31T10:40:52;23.60;;;13.15;;
34725;SDS011;20951;50.818;4.344;2022-10-31T10:43:37;17.75;;;10.70;;
34725;SDS011;20951;50.818;4.344;2022-10-31T10:49:07;17.70;;;10.70;;
34725;SDS011;20951;50.818;4.344;2022-10-31T10:52:17;16.52;;;10.48;;
34725;SDS011;20951;50.818;4.344;2022-10-31T11:00:43;18.08;;;10.07;;
34725;SDS011;20951;50.818;4.344;2022-10-31T11:03:11;15.27;;;10.18;;
34725;SDS011;20951;50.818;4.344;2022-10-31T11:05:42;18.65;;;10.52;;
34725;SDS011;20951;50.818;4.344;2022-10-31T11:08:25;16.95;;;10.13;;
34725;SDS011;20951;50.818;4.344;2022-10-31T11:13:40;19.75;;;10.07;;
34725;SDS011;20951;50.818;4.344;2022-10-31T11:16:08;21.92;;;11.70;;
34725;SDS011;20951;50.818;4.344;2022-10-31T11:18:45;16.73;;;11.50;;
34725;SDS011;20951;50.818;4.344;2022-10-31T11:21:25;19.00;;;10.73;;
34725;SDS011;20951;50.818;4.344;2022-10-31T11:24:39;16.35;;;10.00;;
34725;SDS011;20951;50.818;4.344;2022-10-31T11:27:02;16.67;;;11.60;;
34725;SDS011;20951;50.818;4.344;2022-10-31T11:32:02;16.65;;;9.70;;
34725;SDS011;20951;50.818;4.344;2022-10-31T11:34:41;19.38;;;9.93;;
34725;SDS011;20951;50.818;4.344;2022-10-31T11:37:14;17.80;;;9.55;;
34725;SDS011;20951;50.818;4.344;2022-10-31T11:39:47;18.02;;;10.10;;
34725;SDS011;20951;50.818;4.344;2022-10-31T11:42:19;19.45;;;8.80;;
34725;SDS011;20951;50.818;4.344;2022-10-31T11:44:51;17.50;;;8.98;;
34725;SDS011;20951;50.818;4.344;2022-10-31T11:47:28;19.13;;;9.27;;
34725;SDS011;20951;50.818;4.344;2022-10-31T11:50:00;15.48;;;9.38;;
34725;SDS011;20951;50.818;4.344;2022-10-31T11:52:34;21.63;;;10.13;;
34725;SDS011;20951;50.818;4.344;2022-10-31T11:55:25;22.85;;;14.02;;
34725;SDS011;20951;50.818;4.344;2022-10-31T11:57:58;19.67;;;10.10;;
34725;SDS011;20951;50.818;4.344;2022-10-31T12:08:34;22.30;;;9.27;;
34725;SDS011;20951;50.818;4.344;2022-10-31T12:11:04;19.65;;;8.52;;
34725;SDS011;20951;50.818;4.344;2022-10-31T12:14:02;14.80;;;8.75;;
34725;SDS011;20951;50.818;4.344;2022-10-31T12:21:57;17.58;;;8.93;;
34725;SDS011;20951;50.818;4.344;2022-10-31T12:24:44;16.83;;;9.07;;
34725;SDS011;20951;50.818;4.344;2022-10-31T12:33:13;20.70;;;8.77;;
34725;SDS011;20951;50.818;4.344;2022-10-31T12:36:15;21.50;;;8.95;;
34725;SDS011;20951;50.818;4.344;2022-10-31T12:41:39;18.13;;;7.85;;
34725;SDS011;20951;50.818;4.344;2022-10-31T12:52:38;16.13;;;6.90;;
34725;SDS011;20951;50.818;4.344;2022-10-31T12:55:35;17.08;;;7.25;;
34725;SDS011;20951;50.818;4.344;2022-10-31T13:00:55;15.70;;;7.47;;
34725;SDS011;20951;50.818;4.344;2022-10-31T13:06:46;15.45;;;6.65;;
34725;SDS011;20951;50.818;4.344;2022-10-31T13:09:42;17.13;;;6.45;;
34725;SDS011;20951;50.818;4.344;2022-10-31T13:12:18;19.85;;;8.52;;
34725;SDS011;20951;50.818;4.344;2022-10-31T13:14:53;15.98;;;7.93;;
34725;SDS011;20951;50.818;4.344;2022-10-31T13:17:27;12.23;;;6.18;;
34725;SDS011;20951;50.818;4.344;2022-10-31T13:20:13;15.82;;;7.18;;
34725;SDS011;20951;50.818;4.344;2022-10-31T13:22:40;12.95;;;6.93;;
34725;SDS011;20951;50.818;4.344;2022-10-31T13:25:17;15.77;;;6.75;;
34725;SDS011;20951;50.818;4.344;2022-10-31T13:30:29;19.15;;;7.30;;
34725;SDS011;20951;50.818;4.344;2022-10-31T13:33:06;14.45;;;7.38;;
34725;SDS011;20951;50.818;4.344;2022-10-31T13:38:52;16.10;;;7.15;;
34725;SDS011;20951;50.818;4.344;2022-10-31T13:44:17;18.65;;;6.88;;
34725;SDS011;20951;50.818;4.344;2022-10-31T13:46:50;15.48;;;7.50;;
34725;SDS011;20951;50.818;4.344;2022-10-31T13:52:05;15.55;;;7.15;;
34725;SDS011;20951;50.818;4.344;2022-10-31T13:54:40;14.93;;;6.93;;
34725;SDS011;20951;50.818;4.344;2022-10-31T13:59:54;16.88;;;7.22;;
34725;SDS011;20951;50.818;4.344;2022-10-31T14:02:29;18.60;;;6.97;;
34725;SDS011;20951;50.818;4.344;2022-10-31T14:05:00;16.77;;;6.78;;
34725;SDS011;20951;50.818;4.344;2022-10-31T14:07:46;16.20;;;6.80;;
34725;SDS011;20951;50.818;4.344;2022-10-31T14:13:05;15.55;;;6.82;;
34725;SDS011;20951;50.818;4.344;2022-10-31T14:15:41;18.60;;;7.45;;
34725;SDS011;20951;50.818;4.344;2022-10-31T14:18:22;20.45;;;7.53;;
34725;SDS011;20951;50.818;4.344;2022-10-31T14:20:53;13.77;;;6.82;;
34725;SDS011;20951;50.818;4.344;2022-10-31T14:23:36;15.00;;;6.40;;
34725;SDS011;20951;50.818;4.344;2022-10-31T14:28:52;14.55;;;6.00;;
34725;SDS011;20951;50.818;4.344;2022-10-31T14:31:36;13.63;;;5.15;;
34725;SDS011;20951;50.818;4.344;2022-10-31T14:39:56;17.70;;;6.18;;
34725;SDS011;20951;50.818;4.344;2022-10-31T14:50:58;12.65;;;5.35;;
34725;SDS011;20951;50.818;4.344;2022-10-31T14:53:41;15.50;;;5.90;;
34725;SDS011;20951;50.818;4.344;2022-10-31T14:56:10;15.95;;;5.88;;
34725;SDS011;20951;50.818;4.344;2022-10-31T14:58:41;13.82;;;5.75;;
34725;SDS011;20951;50.818;4.344;2022-10-31T15:01:20;13.85;;;5.05;;
34725;SDS011;20951;50.818;4.344;2022-10-31T15:03:49;19.15;;;5.38;;
34725;SDS011;20951;50.818;4.344;2022-10-31T15:06:17;12.02;;;5.10;;
34725;SDS011;20951;50.818;4.344;2022-10-31T15:08:47;14.82;;;6.03;;
34725;SDS011;20951;50.818;4.344;2022-10-31T15:11:18;12.05;;;5.32;;
34725;SDS011;20951;50.818;4.344;2022-10-31T15:13:49;17.02;;;6.53;;
34725;SDS011;20951;50.818;4.344;2022-10-31T15:16:18;15.82;;;5.95;;
34725;SDS011;20951;50.818;4.344;2022-10-31T15:18:59;15.88;;;6.00;;
34725;SDS011;20951;50.818;4.344;2022-10-31T15:21:29;11.32;;;6.07;;
34725;SDS011;20951;50.818;4.344;2022-10-31T15:23:56;14.57;;;6.47;;
34725;SDS011;20951;50.818;4.344;2022-10-31T15:26:31;53.03;;;38.20;;
34725;SDS011;20951;50.818;4.344;2022-10-31T15:29:01;18.58;;;7.45;;
34725;SDS011;20951;50.818;4.344;2022-10-31T15:31:30;16.42;;;7.20;;
34725;SDS011;20951;50.818;4.344;2022-10-31T15:33:58;15.95;;;6.85;;
34725;SDS011;20951;50.818;4.344;2022-10-31T15:36:38;15.40;;;6.97;;
34725;SDS011;20951;50.818;4.344;2022-10-31T15:39:04;18.17;;;7.93;;
34725;SDS011;20951;50.818;4.344;2022-10-31T15:41:32;18.38;;;7.30;;
34725;SDS011;20951;50.818;4.344;2022-10-31T15:44:28;18.30;;;7.68;;
34725;SDS011;20951;50.818;4.344;2022-10-31T15:47:01;17.08;;;7.72;;
34725;SDS011;20951;50.818;4.344;2022-10-31T15:52:06;17.80;;;7.73;;
34725;SDS011;20951;50.818;4.344;2022-10-31T15:54:33;19.52;;;8.75;;
34725;SDS011;20951;50.818;4.344;2022-10-31T15:57:01;17.73;;;8.48;;
34725;SDS011;20951;50.818;4.344;2022-10-31T15:59:27;23.05;;;8.98;;
34725;SDS011;20951;50.818;4.344;2022-10-31T16:01:58;17.40;;;9.57;;
34725;SDS011;20951;50.818;4.344;2022-10-31T16:04:25;17.83;;;9.40;;
34725;SDS011;20951;50.818;4.344;2022-10-31T16:09:51;17.45;;;9.32;;
34725;SDS011;20951;50.818;4.344;2022-10-31T16:12:22;18.05;;;9.60;;
34725;SDS011;20951;50.818;4.344;2022-10-31T16:14:53;22.52;;;10.38;;
34725;SDS011;20951;50.818;4.344;2022-10-31T16:17:21;17.50;;;9.35;;
34725;SDS011;20951;50.818;4.344;2022-10-31T16:20:00;17.90;;;9.32;;
34725;SDS011;20951;50.818;4.344;2022-10-31T16:22:30;19.20;;;9.80;;
34725;SDS011;20951;50.818;4.344;2022-10-31T16:25:03;24.92;;;9.55;;
34725;SDS011;20951;50.818;4.344;2022-10-31T16:27:38;21.77;;;8.90;;
34725;SDS011;20951;50.818;4.344;2022-10-31T16:33:03;21.85;;;8.73;;
34725;SDS011;20951;50.818;4.344;2022-10-31T16:35:35;20.13;;;8.30;;
34725;SDS011;20951;50.818;4.344;2022-10-31T16:38:02;14.98;;;8.02;;
34725;SDS011;20951;50.818;4.344;2022-10-31T16:40:29;16.60;;;7.55;;
34725;SDS011;20951;50.818;4.344;2022-10-31T16:42:59;15.50;;;7.55;;
34725;SDS011;20951;50.818;4.344;2022-10-31T16:45:28;19.75;;;7.10;;
34725;SDS011;20951;50.818;4.344;2022-10-31T16:48:01;18.77;;;6.85;;
34725;SDS011;20951;50.818;4.344;2022-10-31T16:50:36;16.45;;;7.13;;
34725;SDS011;20951;50.818;4.344;2022-10-31T16:53:03;15.55;;;6.40;;
34725;SDS011;20951;50.818;4.344;2022-10-31T16:55:29;16.00;;;6.38;;
34725;SDS011;20951;50.818;4.344;2022-10-31T16:57:56;15.30;;;6.38;;
34725;SDS011;20951;50.818;4.344;2022-10-31T17:00:25;14.00;;;7.00;;
34725;SDS011;20951;50.818;4.344;2022-10-31T17:02:54;25.00;;;14.73;;
34725;SDS011;20951;50.818;4.344;2022-10-31T17:05:22;18.65;;;7.63;;
34725;SDS011;20951;50.818;4.344;2022-10-31T17:07:58;12.65;;;6.47;;
34725;SDS011;20951;50.818;4.344;2022-10-31T17:10:24;14.45;;;6.05;;
34725;SDS011;20951;50.818;4.344;2022-10-31T17:12:51;13.40;;;5.55;;
34725;SDS011;20951;50.818;4.344;2022-10-31T17:15:22;19.02;;;6.05;;
34725;SDS011;20951;50.818;4.344;2022-10-31T17:17:50;13.63;;;7.10;;
34725;SDS011;20951;50.818;4.344;2022-10-31T17:20:17;13.10;;;6.68;;
34725;SDS011;20951;50.818;4.344;2022-10-31T17:22:43;12.70;;;6.00;;
34725;SDS011;20951;50.818;4.344;2022-10-31T17:25:11;17.15;;;6.05;;
34725;SDS011;20951;50.818;4.344;2022-10-31T17:27:47;15.57;;;6.20;;
34725;SDS011;20951;50.818;4.344;2022-10-31T17:30:13;16.48;;;6.68;;
34725;SDS011;20951;50.818;4.344;2022-10-31T17:32:40;12.70;;;6.32;;
34725;SDS011;20951;50.818;4.344;2022-10-31T17:35:10;13.05;;;6.28;;
34725;SDS011;20951;50.818;4.344;2022-10-31T17:37:39;13.48;;;5.70;;
34725;SDS011;20951;50.818;4.344;2022-10-31T17:40:09;12.52;;;5.85;;
34725;SDS011;20951;50.818;4.344;2022-10-31T17:42:36;14.05;;;6.10;;